Time;durP1;ratioP1;P1;durP2;ratioP2;P2;SDS_P1;SDS_P2;PMS_P1;PMS_P2;Temp;Humidity;BMP_temperature;BMP_pressure;BME280_temperature;BME280_humidity;BME280_pressure;Samples;Min_cycle;Max_cycle;Signal;HPM_P1;HPM_P2
2022/04/03 00:01:32;;;;;;;4.15;2.58;;;;;;;-1.88;58.29;101289.53;7393983;19;20019;-65
2022/04/03 00:04:00;;;;;;;8.90;3.20;;;;;;;-1.89;58.46;101294.63;7394887;19;20014;-65
2022/04/03 00:06:28;;;;;;;4.90;2.50;;;;;;;-1.90;58.44;101287.72;7395519;19;20131;-65
2022/04/03 00:08:56;;;;;;;4.63;2.67;;;;;;;-1.92;58.43;101285.09;7393973;19;20510;-65
2022/04/03 00:11:26;;;;;;;5.60;2.53;;;;;;;-1.94;58.33;101285.88;7393876;19;20030;-67
2022/04/03 00:13:55;;;;;;;4.18;2.50;;;;;;;-1.95;58.51;101290.13;7393874;19;20511;-65
2022/04/03 00:16:23;;;;;;;4.80;2.40;;;;;;;-1.95;58.40;101289.25;7393592;19;20031;-65
2022/04/03 00:18:53;;;;;;;5.25;2.55;;;;;;;-1.97;58.65;101290.06;7395132;19;20023;-65
2022/04/03 00:21:22;;;;;;;7.95;2.80;;;;;;;-2.00;58.70;101283.91;7394904;19;20481;-65
2022/04/03 00:23:50;;;;;;;4.90;2.38;;;;;;;-2.01;58.21;101289.88;7393455;19;20367;-65
2022/04/03 00:26:18;;;;;;;5.60;2.55;;;;;;;-2.04;60.03;101290.63;7394204;19;20014;-65
2022/04/03 00:28:46;;;;;;;4.07;2.50;;;;;;;-2.07;58.82;101290.53;7393254;19;20022;-65
2022/04/03 00:31:15;;;;;;;5.07;2.47;;;;;;;-2.10;59.79;101289.53;7393536;19;20103;-65
2022/04/03 00:33:43;;;;;;;8.15;3.20;;;;;;;-2.14;58.97;101294.56;7392593;19;20485;-65
2022/04/03 00:36:14;;;;;;;7.80;2.72;;;;;;;-2.18;59.94;101297.81;7398513;19;20524;-65
2022/04/03 00:38:42;;;;;;;2.95;2.53;;;;;;;-2.20;59.18;101288.28;7409027;19;20042;-65
2022/04/03 00:41:11;;;;;;;4.22;2.47;;;;;;;-2.24;59.17;101289.84;7408925;19;20018;-65
2022/04/03 00:43:39;;;;;;;6.18;2.45;;;;;;;-2.24;58.94;101287.28;7407220;19;20035;-65
2022/04/03 00:46:10;;;;;;;6.03;2.38;;;;;;;-2.25;59.44;101295.84;7407049;19;20022;-65
2022/04/03 00:48:39;;;;;;;3.42;2.60;;;;;;;-2.28;59.74;101295.69;7407350;19;20032;-65
2022/04/03 00:51:07;;;;;;;2.30;2.10;;;;;;;-2.32;60.10;101296.41;7408227;19;20015;-65
2022/04/03 00:53:38;;;;;;;5.03;2.65;;;;;;;-2.37;59.67;101291.06;7407491;19;20469;-65
2022/04/03 00:56:08;;;;;;;4.15;2.30;;;;;;;-2.40;60.40;101288.41;7406835;19;20039;-65
2022/04/03 00:58:38;;;;;;;5.47;3.00;;;;;;;-2.42;60.10;101291.72;7407066;19;20031;-65
2022/04/03 01:01:06;;;;;;;3.47;2.53;;;;;;;-2.44;60.06;101283.06;7408423;19;20018;-65
2022/04/03 01:03:34;;;;;;;4.93;2.38;;;;;;;-2.46;61.52;101289.00;7405970;19;20427;-65
2022/04/03 01:06:02;;;;;;;3.85;2.08;;;;;;;-2.49;60.78;101291.47;7406341;19;20107;-65
2022/04/03 01:08:31;;;;;;;5.85;2.42;;;;;;;-2.51;60.72;101289.66;7405869;19;20458;-64
2022/04/03 01:11:02;;;;;;;3.85;2.22;;;;;;;-2.57;62.04;101287.69;7406825;19;20026;-65
2022/04/03 01:13:30;;;;;;;3.67;2.03;;;;;;;-2.57;61.18;101279.13;7409271;19;20022;-65
2022/04/03 01:16:00;;;;;;;5.10;2.33;;;;;;;-2.58;61.40;101282.50;7406223;19;20045;-65
2022/04/03 01:18:28;;;;;;;2.90;2.60;;;;;;;-2.59;61.44;101285.88;7406358;19;20023;-65
2022/04/03 01:20:56;;;;;;;5.57;2.33;;;;;;;-2.62;63.55;101281.50;7408158;19;20045;-65
2022/04/03 01:23:26;;;;;;;4.10;2.78;;;;;;;-2.65;61.99;101277.13;7407154;19;20035;-65
2022/04/03 01:25:56;;;;;;;4.20;2.45;;;;;;;-2.66;61.63;101277.91;7404820;19;20372;-65
2022/04/03 01:28:25;;;;;;;6.15;3.20;;;;;;;-2.67;62.97;101275.28;7408160;19;20019;-65
2022/04/03 01:30:53;;;;;;;5.47;2.83;;;;;;;-2.67;62.07;101283.00;7405717;19;20011;-65
2022/04/03 01:33:22;;;;;;;5.90;2.70;;;;;;;-2.67;61.70;101283.88;7407177;19;20022;-65
2022/04/03 01:35:50;;;;;;;5.35;2.58;;;;;;;-2.68;62.96;101283.81;7407820;19;20023;-65
2022/04/03 01:38:18;;;;;;;7.32;2.78;;;;;;;-2.69;62.19;101279.50;7405596;19;20031;-65
2022/04/03 01:40:46;;;;;;;6.90;2.85;;;;;;;-2.71;61.67;101283.69;7407696;19;20030;-65
2022/04/03 01:43:17;;;;;;;5.53;3.10;;;;;;;-2.72;62.14;101281.94;7407012;19;20018;-65
2022/04/03 01:45:45;;;;;;;3.65;2.58;;;;;;;-2.76;63.54;101280.94;7405094;19;20499;-65
2022/04/03 01:48:15;;;;;;;4.35;2.80;;;;;;;-2.81;62.78;101287.56;7399465;19;20022;-65
2022/04/03 01:50:43;;;;;;;4.40;3.03;;;;;;;-2.84;62.59;101295.16;7399351;19;20018;-65
2022/04/03 01:53:12;;;;;;;5.85;2.95;;;;;;;-2.86;62.20;101291.66;7397720;19;20031;-65
2022/04/03 01:55:40;;;;;;;5.90;3.00;;;;;;;-2.88;62.48;101290.69;7400233;19;20018;-65
2022/04/03 01:58:09;;;;;;;2.97;2.67;;;;;;;-2.89;62.51;101288.94;7400135;19;20038;-65
2022/04/03 02:00:41;;;;;;;2.72;2.47;;;;;;;-2.92;62.30;101299.09;7399987;19;20025;-66
2022/04/03 02:03:09;;;;;;;7.90;3.00;;;;;;;-2.95;62.19;101295.56;7397805;19;20018;-66
2022/04/03 02:05:38;;;;;;;7.88;3.15;;;;;;;-2.97;62.98;101296.31;7399893;19;20357;-66
2022/04/03 02:08:07;;;;;;;3.70;2.95;;;;;;;-2.99;62.30;101297.97;7399697;19;20028;-66
2022/04/03 02:10:35;;;;;;;4.20;2.97;;;;;;;-3.04;63.45;101302.03;7399970;19;20019;-66
2022/04/03 02:13:03;;;;;;;5.95;2.92;;;;;;;-3.09;63.26;101299.25;7400041;19;20035;-64
2022/04/03 02:15:31;;;;;;;5.93;3.65;;;;;;;-3.12;63.14;101301.69;7399260;19;20465;-64
2022/04/03 02:18:03;;;;;;;8.50;3.28;;;;;;;-3.14;63.06;101303.31;7399478;19;20010;-66
2022/04/03 02:20:31;;;;;;;5.68;2.80;;;;;;;-3.17;63.21;101301.50;7399832;19;20023;-65
2022/04/03 02:23:00;;;;;;;4.72;3.20;;;;;;;-3.21;63.21;101304.75;7396799;19;20039;-65
2022/04/03 02:25:29;;;;;;;3.22;2.67;;;;;;;-3.24;63.60;101306.28;7398566;19;20492;-65
2022/04/03 02:27:57;;;;;;;6.68;2.85;;;;;;;-3.31;63.93;101308.59;7396427;19;20011;-65
2022/04/03 02:30:25;;;;;;;4.53;3.15;;;;;;;-3.37;64.29;101310.03;7396792;19;20023;-65
2022/04/03 02:32:53;;;;;;;5.07;3.50;;;;;;;-3.45;65.28;101309.66;7398800;19;20015;-65
2022/04/03 02:35:24;;;;;;;6.82;3.40;;;;;;;-3.52;64.71;101307.66;7396792;19;20032;-65
2022/04/03 02:37:53;;;;;;;6.45;3.63;;;;;;;-3.58;65.35;101310.78;7399226;19;20017;-65
2022/04/03 02:40:21;;;;;;;7.13;3.63;;;;;;;-3.64;64.97;101307.94;7396469;19;20039;-65
2022/04/03 02:42:52;;;;;;;6.20;3.70;;;;;;;-3.67;65.74;101312.97;7395573;19;20516;-66
2022/04/03 02:45:20;;;;;;;6.05;3.78;;;;;;;-3.71;66.09;101313.63;7398864;19;20022;-65
2022/04/03 02:47:55;;;;;;;8.43;4.25;;;;;;;-3.78;66.43;101308.22;7398306;19;20041;-65
2022/04/03 02:50:28;;;;;;;8.38;4.45;;;;;;;-3.80;65.85;101309.81;7395793;19;20027;-65
2022/04/03 02:52:57;;;;;;;8.38;4.25;;;;;;;-3.83;65.45;101306.25;7399075;19;20374;-65
2022/04/03 02:55:27;;;;;;;7.25;4.40;;;;;;;-3.83;65.39;101308.81;7396218;19;20035;-65
2022/04/03 02:57:55;;;;;;;7.78;4.05;;;;;;;-3.84;65.20;101307.03;7396201;19;20022;-65
2022/04/03 03:00:24;;;;;;;7.03;4.60;;;;;;;-3.86;65.20;101301.84;7395689;19;20019;-65
2022/04/03 03:02:54;;;;;;;6.45;4.00;;;;;;;-3.86;65.31;101306.13;7395783;19;20014;-65
2022/04/03 03:05:22;;;;;;;10.35;4.40;;;;;;;-3.88;65.81;101302.59;7395906;19;20027;-65
2022/04/03 03:07:53;;;;;;;7.97;4.40;;;;;;;-3.89;65.42;101304.28;7395848;19;20022;-65
2022/04/03 03:10:23;;;;;;;11.45;4.60;;;;;;;-3.89;65.26;101299.16;7395866;19;20022;-65
2022/04/03 03:12:51;;;;;;;6.45;3.80;;;;;;;-3.91;65.51;101298.19;7397148;19;20478;-66
2022/04/03 03:15:21;;;;;;;5.47;4.13;;;;;;;-3.92;65.33;101296.44;7397669;19;20015;-65
2022/04/03 03:17:50;;;;;;;10.93;5.78;;;;;;;-3.93;65.31;101297.25;7395545;19;20357;-65
2022/04/03 03:20:18;;;;;;;10.95;5.28;;;;;;;-3.93;65.16;101307.50;7397380;19;20018;-64
2022/04/03 03:22:46;;;;;;;10.10;5.40;;;;;;;-3.95;65.28;101304.00;7397234;19;20022;-65
2022/04/03 03:25:17;;;;;;;9.00;4.90;;;;;;;-4.00;65.41;101298.66;7397281;19;20014;-65
2022/04/03 03:27:45;;;;;;;5.43;3.83;;;;;;;-4.01;65.86;101303.72;7395801;19;20028;-65
2022/04/03 03:30:14;;;;;;;7.63;4.47;;;;;;;-4.05;66.15;101304.38;7396816;19;20427;-65
2022/04/03 03:32:42;;;;;;;9.23;4.40;;;;;;;-4.09;65.85;101306.78;7394569;19;20485;-65
2022/04/03 03:35:11;;;;;;;9.45;4.15;;;;;;;-4.10;65.71;101309.28;7394590;19;20386;-65
2022/04/03 03:37:40;;;;;;;7.57;4.20;;;;;;;-4.13;65.83;101312.59;7396731;19;20031;-65
2022/04/03 03:40:11;;;;;;;11.02;6.32;;;;;;;-4.17;65.68;101303.00;7394677;19;20019;-65
2022/04/03 03:42:43;;;;;;;15.75;6.75;;;;;;;-4.17;66.08;101297.88;7396694;19;20022;-65
2022/04/03 03:45:13;;;;;;;13.77;7.00;;;;;;;-4.20;66.29;101307.97;7396934;19;20018;-65
2022/04/03 03:47:41;;;;;;;17.40;7.50;;;;;;;-4.22;66.03;101304.47;7396580;19;20028;-65
2022/04/03 03:50:10;;;;;;;15.05;6.35;;;;;;;-4.22;66.71;101303.56;7394846;19;20038;-65
2022/04/03 03:52:38;;;;;;;8.35;4.90;;;;;;;-4.25;66.45;101312.00;7394856;19;20018;-65
2022/04/03 03:55:08;;;;;;;11.25;4.88;;;;;;;-4.24;66.76;101310.34;7394451;19;20041;-65
2022/04/03 03:57:36;;;;;;;6.38;4.40;;;;;;;-4.26;66.81;101302.53;7396282;19;20024;-65
2022/04/03 04:00:15;;;;;;;8.43;5.00;;;;;;;-4.28;67.48;101302.47;7396224;19;20035;-65
2022/04/03 04:02:43;;;;;;;6.00;4.40;;;;;;;-4.29;66.82;101302.41;7395753;19;20525;-65
2022/04/03 04:05:12;;;;;;;7.25;4.78;;;;;;;-4.29;66.63;101315.22;7395707;19;20485;-65
2022/04/03 04:07:42;;;;;;;7.05;4.97;;;;;;;-4.29;66.70;101310.97;7395879;19;20014;-65
2022/04/03 04:10:12;;;;;;;6.15;4.53;;;;;;;-4.27;66.78;101313.63;7395597;19;20042;-65
2022/04/03 04:12:40;;;;;;;8.45;4.25;;;;;;;-4.26;67.30;101317.91;7393101;19;20054;-65
2022/04/03 04:15:09;;;;;;;5.60;3.92;;;;;;;-4.27;67.75;101316.19;7394075;19;20014;-65
2022/04/03 04:17:43;;;;;;;6.88;4.47;;;;;;;-4.27;67.67;101322.19;7395589;19;20018;-65
2022/04/03 04:20:15;;;;;;;6.63;5.03;;;;;;;-4.27;68.29;101318.75;7395654;19;20063;-65
2022/04/03 04:22:44;;;;;;;5.45;4.25;;;;;;;-4.26;68.04;101326.50;7393785;19;20022;-65
2022/04/03 04:25:13;;;;;;;11.10;5.35;;;;;;;-4.24;67.66;101320.59;7393832;19;20018;-65
2022/04/03 04:27:42;;;;;;;5.60;4.40;;;;;;;-4.22;67.88;101324.97;7393773;19;20010;-65
2022/04/03 04:30:11;;;;;;;10.43;3.90;;;;;;;-4.20;67.43;101327.59;7395172;19;20018;-66
2022/04/03 04:32:48;;;;;;;5.50;4.25;;;;;;;-4.16;67.19;101326.94;7393695;19;20418;-65
2022/04/03 04:35:16;;;;;;;6.15;3.90;;;;;;;-4.12;67.37;101332.28;7395525;19;20022;-66
2022/04/03 04:37:45;;;;;;;7.38;4.10;;;;;;;-4.08;68.76;101328.19;7393790;19;20015;-66
2022/04/03 04:40:14;;;;;;;5.40;3.83;;;;;;;-4.04;67.81;101329.19;7393323;19;20010;-64
2022/04/03 04:42:43;;;;;;;5.30;4.20;;;;;;;-4.00;67.90;101333.69;7394574;19;20465;-65
2022/04/03 04:45:14;;;;;;;9.20;4.38;;;;;;;-3.98;67.76;101334.59;7395576;19;20029;-66
2022/04/03 04:47:45;;;;;;;9.68;4.57;;;;;;;-3.95;68.07;101333.06;7396164;19;20043;-65
2022/04/03 04:50:18;;;;;;;6.95;3.70;;;;;;;-3.95;68.02;101321.94;7395226;19;20022;-65
2022/04/03 04:52:46;;;;;;;6.30;4.40;;;;;;;-3.86;68.06;101332.63;7392168;19;20351;-64
2022/04/03 04:55:14;;;;;;;4.50;3.92;;;;;;;-3.80;67.73;101338.03;7394664;19;20019;-65
2022/04/03 04:57:42;;;;;;;6.95;4.40;;;;;;;-3.74;68.28;101334.00;7392640;19;20022;-67
2022/04/03 05:00:13;;;;;;;11.90;4.60;;;;;;;-3.69;67.83;101335.09;7394946;19;20035;-66
2022/04/03 05:02:46;;;;;;;5.88;4.13;;;;;;;-3.63;67.87;101333.69;7395274;19;20011;-67
2022/04/03 05:05:14;;;;;;;7.90;4.20;;;;;;;-3.57;67.13;101337.34;7394924;19;20015;-65
2022/04/03 05:07:43;;;;;;;5.88;4.20;;;;;;;-3.52;67.08;101338.44;7392299;19;20023;-65
2022/04/03 05:10:11;;;;;;;8.05;4.82;;;;;;;-3.46;67.46;101331.88;7392341;19;20026;-65
2022/04/03 05:12:40;;;;;;;7.15;4.25;;;;;;;-3.38;66.91;101333.91;7392097;19;20027;-65
2022/04/03 05:15:11;;;;;;;5.97;4.18;;;;;;;-3.35;66.82;101337.50;7391863;19;20026;-66
2022/04/03 05:17:40;;;;;;;8.27;4.72;;;;;;;-3.27;66.85;101337.84;7392076;19;20090;-65
2022/04/03 05:20:12;;;;;;;6.22;4.20;;;;;;;-3.24;66.74;101335.38;7393539;19;20387;-65
2022/04/03 05:22:41;;;;;;;7.90;4.60;;;;;;;-3.19;66.55;101341.59;7394377;19;20082;-65
2022/04/03 05:25:31;;;;;;;10.50;4.78;;;;;;;-3.13;66.50;101339.31;7401403;19;20010;-65
2022/04/03 05:28:13;;;;;;;10.13;5.30;;;;;;;-3.07;66.60;101342.94;7398444;19;20020;-65
2022/04/03 05:30:41;;;;;;;7.88;4.28;;;;;;;-3.05;66.28;101339.63;7401385;19;20019;-66
2022/04/03 05:33:09;;;;;;;6.47;4.90;;;;;;;-3.01;66.45;101341.56;7398021;19;20459;-65
2022/04/03 05:35:40;;;;;;;6.07;4.55;;;;;;;-2.97;66.28;101342.53;7400888;19;20032;-66
2022/04/03 05:38:08;;;;;;;7.47;5.30;;;;;;;-2.93;66.22;101348.69;7401111;19;20031;-66
2022/04/03 05:40:38;;;;;;;8.55;5.95;;;;;;;-2.89;65.92;101346.31;7398096;19;20071;-67
2022/04/03 05:43:06;;;;;;;8.00;5.18;;;;;;;-2.84;65.82;101344.81;7400003;19;20410;-66
2022/04/03 05:45:35;;;;;;;7.85;4.53;;;;;;;-2.80;66.03;101356.97;7400462;19;20524;-65
2022/04/03 05:48:04;;;;;;;6.93;4.10;;;;;;;-2.76;65.99;101357.13;7398060;19;20031;-66
2022/04/03 05:50:32;;;;;;;5.68;4.03;;;;;;;-2.73;65.66;101360.72;7400493;19;20025;-65
2022/04/03 05:53:02;;;;;;;7.00;3.53;;;;;;;-2.70;65.38;101363.38;7397550;19;20022;-65
2022/04/03 05:55:31;;;;;;;7.78;4.40;;;;;;;-2.67;65.00;101355.81;7400821;19;20023;-66
2022/04/03 05:57:59;;;;;;;8.50;5.03;;;;;;;-2.64;65.12;101355.94;7400782;19;20019;-65
2022/04/03 06:00:27;;;;;;;9.40;4.68;;;;;;;-2.60;65.27;101353.50;7400221;19;20488;-68
2022/04/03 06:02:58;;;;;;;6.72;3.72;;;;;;;-2.57;64.81;101359.63;7397220;19;20347;-65
2022/04/03 06:05:29;;;;;;;6.05;3.15;;;;;;;-2.56;64.98;101357.97;7398008;19;20032;-66
2022/04/03 06:07:58;;;;;;;5.82;3.53;;;;;;;-2.47;64.77;101353.19;7400216;19;20015;-65
2022/04/03 06:10:29;;;;;;;6.97;4.30;;;;;;;-2.42;64.19;101358.53;7397453;19;20026;-66
2022/04/03 06:13:00;;;;;;;4.68;3.67;;;;;;;-2.38;63.77;101365.56;7398451;19;20011;-66
2022/04/03 06:15:33;;;;;;;10.52;4.43;;;;;;;-2.35;63.77;101361.41;7399327;19;20331;-67
2022/04/03 06:18:02;;;;;;;6.70;4.15;;;;;;;-2.30;63.35;101369.28;7399990;19;20011;-66
2022/04/03 06:20:30;;;;;;;7.97;4.07;;;;;;;-2.26;63.46;101360.03;7399346;19;20037;-66
2022/04/03 06:22:59;;;;;;;5.38;3.20;;;;;;;-2.22;62.90;101361.91;7396645;19;20034;-65
2022/04/03 06:25:30;;;;;;;6.95;3.85;;;;;;;-2.20;62.59;101365.41;7396501;19;20369;-65
2022/04/03 06:27:58;;;;;;;19.98;8.93;;;;;;;-2.18;62.93;101367.22;7397314;19;20018;-65
2022/04/03 06:30:26;;;;;;;10.30;5.18;;;;;;;-2.11;62.62;101367.47;7399091;19;20019;-66
2022/04/03 06:32:55;;;;;;;10.80;4.03;;;;;;;-2.05;61.95;101372.88;7396466;19;20039;-69
2022/04/03 06:35:23;;;;;;;5.30;3.92;;;;;;;-2.03;62.24;101379.81;7397677;19;20018;-65
2022/04/03 06:37:52;;;;;;;8.15;3.75;;;;;;;-1.99;62.02;101376.56;7398430;19;20014;-66
2022/04/03 06:40:21;;;;;;;4.38;3.50;;;;;;;-1.94;61.92;101381.88;7396165;19;20031;-66
2022/04/03 06:42:52;;;;;;;8.18;4.20;;;;;;;-1.89;61.66;101372.66;7397980;19;20398;-66
2022/04/03 06:45:21;;;;;;;5.20;3.05;;;;;;;-1.83;61.51;101369.47;7396992;19;20035;-67
2022/04/03 06:47:49;;;;;;;6.05;3.38;;;;;;;-1.76;60.64;101376.56;7395850;19;20482;-65
2022/04/03 06:50:18;;;;;;;6.03;3.08;;;;;;;-1.71;59.85;101376.75;7396226;19;20026;-65
2022/04/03 06:52:46;;;;;;;6.90;3.33;;;;;;;-1.64;60.23;101373.63;7397427;19;20035;-65
2022/04/03 06:55:14;;;;;;;6.82;3.95;;;;;;;-1.56;60.05;101379.06;7396590;19;20018;-66
2022/04/03 06:57:43;;;;;;;12.02;6.75;;;;;;;-1.51;60.00;101370.66;7398966;19;20023;-65
2022/04/03 07:00:15;;;;;;;9.85;5.10;;;;;;;-1.39;60.05;101380.56;7395797;19;20035;-67
2022/04/03 07:02:43;;;;;;;12.43;6.88;;;;;;;-1.30;59.60;101380.03;7398389;19;20026;-68
2022/04/03 07:05:12;;;;;;;5.82;3.85;;;;;;;-1.22;59.71;101373.47;7397897;19;20022;-67
2022/04/03 07:07:40;;;;;;;4.35;3.35;;;;;;;-1.18;59.13;101377.03;7397807;19;20020;-66
2022/04/03 07:10:10;;;;;;;10.38;5.88;;;;;;;-1.09;59.06;101379.06;7397853;19;20018;-69
2022/04/03 07:12:39;;;;;;;7.28;4.63;;;;;;;-1.00;58.86;101381.97;7397272;19;20015;-65
2022/04/03 07:15:12;;;;;;;7.38;4.10;;;;;;;-0.94;58.54;101382.19;7395943;19;20022;-68
2022/04/03 07:17:43;;;;;;;4.30;3.70;;;;;;;-0.89;57.92;101384.94;7397930;19;20041;-67
2022/04/03 07:20:13;;;;;;;5.05;3.30;;;;;;;-0.84;57.95;101380.81;7397472;19;20019;-66
2022/04/03 07:22:42;;;;;;;8.38;6.00;;;;;;;-0.80;58.27;101381.78;7398056;19;20010;-64
2022/04/03 07:25:11;;;;;;;10.45;3.65;;;;;;;-0.76;57.69;101383.66;7395918;19;20021;-65
2022/04/03 07:27:40;;;;;;;5.82;3.20;;;;;;;-0.71;58.20;101384.69;7395646;19;20023;-67
2022/04/03 07:30:12;;;;;;;4.40;2.83;;;;;;;-0.68;57.53;101382.22;7395136;19;20350;-66
2022/04/03 07:32:43;;;;;;;6.13;3.67;;;;;;;-0.60;57.56;101390.22;7396215;19;20017;-66
2022/04/03 07:35:12;;;;;;;6.90;4.00;;;;;;;-0.54;57.70;101388.72;7394922;19;20108;-66
2022/04/03 07:37:40;;;;;;;6.60;4.18;;;;;;;-0.43;57.58;101388.19;7396187;19;20506;-65
2022/04/03 07:40:10;;;;;;;5.32;3.60;;;;;;;-0.29;57.74;101381.81;7394621;19;20410;-65
2022/04/03 07:42:39;;;;;;;6.53;3.50;;;;;;;-0.15;57.09;101386.53;7394866;19;20041;-67
2022/04/03 07:45:08;;;;;;;5.63;3.38;;;;;;;-0.04;57.14;101387.75;7393957;19;20019;-67
2022/04/03 07:47:36;;;;;;;5.53;3.17;;;;;;;0.05;56.28;101390.66;7394650;19;20422;-67
2022/04/03 07:50:08;;;;;;;3.28;2.75;;;;;;;0.12;56.42;101389.13;7396572;19;20031;-66
2022/04/03 07:52:36;;;;;;;6.53;3.35;;;;;;;0.18;56.60;101391.91;7396372;19;20015;-67
2022/04/03 07:55:05;;;;;;;5.55;3.60;;;;;;;0.23;56.29;101392.03;7395346;19;20046;-66
2022/04/03 07:57:33;;;;;;;3.78;2.97;;;;;;;0.25;55.84;101398.13;7396317;19;20019;-66
2022/04/03 08:00:01;;;;;;;5.50;3.60;;;;;;;0.26;56.02;101381.81;7394114;19;20018;-69
2022/04/03 08:02:30;;;;;;;7.68;3.70;;;;;;;0.23;55.61;101392.03;7396532;19;20489;-67
2022/04/03 08:04:58;;;;;;;11.07;4.93;;;;;;;0.21;55.56;101399.72;7395192;19;20035;-67
2022/04/03 08:07:36;;;;;;;11.70;7.13;;;;;;;0.18;55.80;101399.66;7395050;19;20019;-66
2022/04/03 08:10:05;;;;;;;5.28;3.45;;;;;;;0.18;55.75;101384.16;7394468;19;20484;-65
2022/04/03 08:12:34;;;;;;;3.50;3.10;;;;;;;0.23;56.10;101381.72;7396767;19;20015;-67
2022/04/03 08:15:02;;;;;;;3.65;2.42;;;;;;;0.29;56.05;101381.91;7394711;19;20019;-67
2022/04/03 08:17:31;;;;;;;4.55;2.40;;;;;;;0.36;55.59;101378.69;7395552;19;20031;-66
2022/04/03 08:19:59;;;;;;;4.70;2.80;;;;;;;0.44;55.31;101369.47;7393800;19;20022;-67
2022/04/03 08:22:27;;;;;;;6.28;2.88;;;;;;;0.57;55.48;101377.56;7396054;19;20039;-67
2022/04/03 08:24:58;;;;;;;4.82;2.50;;;;;;;0.69;54.76;101380.50;7393441;19;20039;-68
2022/04/03 08:27:26;;;;;;;5.53;2.75;;;;;;;0.85;53.51;101381.84;7393571;19;20487;-66
2022/04/03 08:29:54;;;;;;;3.78;3.05;;;;;;;1.01;54.34;101382.25;7393166;19;20099;-67
2022/04/03 08:32:22;;;;;;;3.00;2.30;;;;;;;1.20;52.81;101381.06;7392732;19;20035;-66
2022/04/03 08:34:53;;;;;;;5.40;2.50;;;;;;;1.38;52.55;101378.06;7392906;19;20018;-66
2022/04/03 08:37:21;;;;;;;3.05;2.22;;;;;;;1.55;49.97;101373.34;7394424;19;20481;-67
2022/04/03 08:39:49;;;;;;;2.50;1.90;;;;;;;1.71;47.05;101374.63;7392829;19;20039;-68
2022/04/03 08:42:20;;;;;;;2.80;1.90;;;;;;;1.83;48.49;101376.63;7394376;19;20018;-66
2022/04/03 08:44:48;;;;;;;3.03;2.00;;;;;;;1.94;48.14;101394.16;7392988;19;20035;-67
2022/04/03 08:47:19;;;;;;;4.07;2.15;;;;;;;2.07;49.61;101374.63;7394809;19;20015;-65
2022/04/03 08:49:49;;;;;;;2.80;2.00;;;;;;;2.22;46.35;101383.59;7395056;19;20027;-67
2022/04/03 08:52:17;;;;;;;3.10;1.83;;;;;;;2.31;48.17;101378.59;7394445;19;20032;-66
2022/04/03 08:54:45;;;;;;;3.00;2.30;;;;;;;2.41;47.57;101375.41;7392606;19;20428;-67
2022/04/03 08:57:13;;;;;;;2.90;1.58;;;;;;;2.50;45.93;101381.59;7394144;19;20035;-68
2022/04/03 08:59:45;;;;;;;5.00;2.03;;;;;;;2.58;44.92;101380.94;7402258;19;20035;-65
2022/04/03 09:02:15;;;;;;;5.45;2.22;;;;;;;2.65;45.57;101375.88;7399142;19;20014;-66
2022/04/03 09:04:43;;;;;;;4.50;2.38;;;;;;;2.68;41.53;101383.69;7399558;19;20027;-67
2022/04/03 09:07:18;;;;;;;3.28;1.40;;;;;;;2.73;43.22;101379.50;7401674;19;20039;-68
2022/04/03 09:09:48;;;;;;;3.13;2.03;;;;;;;2.71;40.09;101379.47;7401813;19;20018;-66
2022/04/03 09:12:20;;;;;;;2.75;1.98;;;;;;;2.68;40.43;101375.94;7398518;19;20375;-66
2022/04/03 09:14:53;;;;;;;3.85;2.00;;;;;;;2.66;42.39;101378.50;7399017;19;20077;-66
2022/04/03 09:17:36;;;;;;;7.38;2.50;;;;;;;2.60;41.05;101366.31;7401965;19;20014;-66
2022/04/03 09:20:06;;;;;;;3.28;2.05;;;;;;;2.58;42.28;101365.38;7401830;19;20041;-66
2022/04/03 09:22:36;;;;;;;4.57;1.90;;;;;;;2.57;43.00;101370.53;7399077;19;20015;-66
2022/04/03 09:25:04;;;;;;;2.03;1.83;;;;;;;2.59;42.84;101364.53;7398714;19;20022;-66
2022/04/03 09:27:35;;;;;;;2.30;1.75;;;;;;;2.64;41.96;101358.59;7399593;19;20489;-66
2022/04/03 09:30:10;;;;;;;1.70;1.40;;;;;;;2.69;41.18;101354.38;7398887;19;20010;-66
2022/04/03 09:32:47;;;;;;;2.10;1.70;;;;;;;2.76;41.15;101357.09;7401005;19;20019;-65
2022/04/03 09:35:15;;;;;;;1.85;1.23;;;;;;;2.87;42.44;101344.38;7401362;19;20018;-66
2022/04/03 09:38:12;;;;;;;3.00;2.15;;;;;;;3.01;41.25;101339.47;7398055;19;20036;-67
2022/04/03 09:40:42;;;;;;;5.40;2.00;;;;;;;3.15;41.97;101336.25;7398668;19;20011;-66
2022/04/03 09:43:21;;;;;;;5.65;2.08;;;;;;;3.26;40.17;101345.06;7398287;19;20018;-66
2022/04/03 09:45:54;;;;;;;2.80;1.90;;;;;;;3.33;39.94;101331.38;7401136;19;20371;-67
2022/04/03 09:48:25;;;;;;;2.30;1.42;;;;;;;3.39;40.82;101323.72;7399860;19;20038;-66
2022/04/03 09:51:07;;;;;;;2.88;1.42;;;;;;;3.48;40.02;101327.31;7401538;19;20018;-67
2022/04/03 09:53:46;;;;;;;6.20;3.63;;;;;;;3.53;37.13;101321.34;7399263;19;20014;-66
2022/04/03 09:56:16;;;;;;;4.93;2.90;;;;;;;3.65;38.84;101335.38;7398119;19;20041;-66
2022/04/03 09:58:59;;;;;;;2.40;2.00;;;;;;;3.76;36.96;101328.63;7400401;19;20031;-67
2022/04/03 10:01:34;;;;;;;3.83;1.95;;;;;;;3.86;38.55;101335.72;7401069;19;20018;-66
2022/04/03 10:04:03;;;;;;;2.45;1.83;;;;;;;3.95;39.19;101324.59;7399521;19;20025;-67
2022/04/03 10:06:33;;;;;;;2.53;1.70;;;;;;;4.03;38.44;101338.56;7400101;19;20039;-65
2022/04/03 10:09:02;;;;;;;2.92;1.88;;;;;;;4.03;37.65;101324.69;7395677;19;20090;-65
2022/04/03 10:11:31;;;;;;;2.30;1.80;;;;;;;4.02;37.72;101334.22;7397731;19;20045;-65
2022/04/03 10:14:00;;;;;;;2.28;1.63;;;;;;;3.98;36.29;101326.34;7398161;19;20018;-65
2022/04/03 10:16:30;;;;;;;3.10;1.60;;;;;;;3.94;36.57;101321.97;7397295;19;20025;-66
2022/04/03 10:18:59;;;;;;;4.93;1.95;;;;;;;3.94;38.05;101321.97;7400232;19;20077;-66
2022/04/03 10:21:37;;;;;;;3.45;1.73;;;;;;;3.96;36.18;101336.72;7399623;19;20041;-66
2022/04/03 10:24:10;;;;;;;5.57;2.97;;;;;;;3.99;37.88;101320.31;7397146;19;20015;-66
2022/04/03 10:26:41;;;;;;;3.53;2.17;;;;;;;4.06;38.29;101315.22;7399691;19;20022;-65
2022/04/03 10:29:12;;;;;;;2.72;1.92;;;;;;;4.14;37.52;101324.88;7396339;19;20031;-65
2022/04/03 10:31:58;;;;;;;2.90;2.25;;;;;;;4.16;35.50;101320.59;7397171;19;20022;-65
2022/04/03 10:34:28;;;;;;;2.80;2.17;;;;;;;4.13;34.98;101323.97;7396857;19;20486;-66
2022/04/03 10:36:56;;;;;;;3.70;2.60;;;;;;;4.15;36.29;101317.09;7400938;19;20019;-65
2022/04/03 10:39:26;;;;;;;5.00;2.75;;;;;;;4.11;35.96;101323.09;7399117;19;20026;-67
2022/04/03 10:42:16;;;;;;;2.95;2.33;;;;;;;4.07;35.58;101311.78;7398323;19;20502;-65
2022/04/03 10:44:44;;;;;;;4.30;2.47;;;;;;;4.07;35.63;101311.78;7396464;19;20022;-66
2022/04/03 10:47:30;;;;;;;4.22;1.92;;;;;;;4.08;35.31;101310.94;7398739;19;20026;-66
2022/04/03 10:50:03;;;;;;;3.50;2.38;;;;;;;4.14;35.49;101314.47;7396844;19;20035;-67
2022/04/03 10:52:59;;;;;;;6.10;2.35;;;;;;;4.12;34.37;101292.78;7396468;19;20019;-68
2022/04/03 10:55:30;;;;;;;4.60;2.30;;;;;;;4.11;36.23;101291.94;7395907;19;20375;-66
2022/04/03 10:58:03;;;;;;;3.15;1.60;;;;;;;4.15;34.95;101298.06;7396670;19;20022;-65
2022/04/03 11:00:34;;;;;;;1.77;1.67;;;;;;;4.22;36.40;101298.16;7398541;19;20022;-66
2022/04/03 11:03:37;;;;;;;4.85;1.77;;;;;;;4.34;34.78;101296.56;7397675;19;20018;-66
2022/04/03 11:06:21;;;;;;;2.90;1.80;;;;;;;4.44;34.06;101292.38;7398191;19;20022;-66
2022/04/03 11:08:58;;;;;;;2.25;1.80;;;;;;;4.51;34.21;101286.38;7395667;19;20041;-66
2022/04/03 11:11:34;;;;;;;2.85;2.03;;;;;;;4.62;35.02;101281.31;7395549;19;20044;-67
2022/04/03 11:14:02;;;;;;;3.85;1.67;;;;;;;4.69;34.16;101278.78;7396459;19;20023;-65
2022/04/03 11:16:30;;;;;;;2.58;1.63;;;;;;;4.72;34.49;101264.94;7397395;19;20427;-65
2022/04/03 11:19:07;;;;;;;3.78;1.92;;;;;;;4.76;33.48;101273.66;7397293;19;20026;-66
2022/04/03 11:21:37;;;;;;;3.17;2.00;;;;;;;4.78;33.51;101272.81;7395474;19;20025;-66
2022/04/03 11:24:08;;;;;;;2.30;1.88;;;;;;;4.76;32.72;101279.72;7395500;19;20351;-65
2022/04/03 11:26:37;;;;;;;3.05;1.73;;;;;;;4.75;33.86;101266.72;7397304;19;20039;-66
2022/04/03 11:29:07;;;;;;;1.60;1.40;;;;;;;4.68;32.89;101255.38;7394261;19;20031;-66
2022/04/03 11:31:36;;;;;;;1.52;1.38;;;;;;;4.72;34.30;101245.00;7394782;19;20034;-66
2022/04/03 11:34:07;;;;;;;3.40;1.90;;;;;;;4.84;34.07;101236.50;7395333;19;20035;-66
2022/04/03 11:36:36;;;;;;;3.30;1.83;;;;;;;4.96;33.98;101237.47;7396559;19;20010;-65
2022/04/03 11:39:09;;;;;;;2.75;1.70;;;;;;;5.07;33.68;101233.22;7395668;19;20018;-65
2022/04/03 11:41:39;;;;;;;3.40;1.90;;;;;;;5.11;32.45;101258.41;7396329;19;20032;-66